createdAt,value
2022-12-18T00:01:20.409Z,4.48
2022-12-18T00:03:47.750Z,4.30
2022-12-18T00:06:14.946Z,4.22
2022-12-18T00:08:42.597Z,4.19
2022-12-18T00:11:13.858Z,4.16
2022-12-18T00:13:41.423Z,4.14
2022-12-18T00:16:13.034Z,4.07
2022-12-18T00:18:40.293Z,3.96
2022-12-18T00:21:09.793Z,4.05
2022-12-18T00:23:38.916Z,3.99
2022-12-18T00:26:09.143Z,3.71
2022-12-18T00:28:35.858Z,3.84
2022-12-18T00:31:08.337Z,3.93
2022-12-18T00:33:36.751Z,3.83
2022-12-18T00:36:10.394Z,3.88
2022-12-18T00:38:37.889Z,3.82
2022-12-18T00:41:05.600Z,3.85
2022-12-18T00:43:37.041Z,3.81
2022-12-18T00:46:04.906Z,3.73
2022-12-18T00:48:32.072Z,3.77
2022-12-18T00:50:58.698Z,3.56
2022-12-18T00:53:25.373Z,3.68
2022-12-18T00:55:52.138Z,3.54
2022-12-18T00:58:18.872Z,3.58
2022-12-18T01:00:45.898Z,3.56
2022-12-18T01:03:15.341Z,3.43
2022-12-18T01:05:42.975Z,3.59
2022-12-18T01:08:10.020Z,3.53
2022-12-18T01:10:36.776Z,3.43
2022-12-18T01:13:03.376Z,3.49
2022-12-18T01:15:30.122Z,3.46
2022-12-18T01:17:56.748Z,3.38
2022-12-18T01:20:23.447Z,3.38
2022-12-18T01:22:50.103Z,3.26
2022-12-18T01:25:16.756Z,3.35
2022-12-18T01:27:44.278Z,3.33
2022-12-18T01:30:11.512Z,3.15
2022-12-18T01:32:38.463Z,3.23
2022-12-18T01:35:06.457Z,3.29
2022-12-18T01:37:33.102Z,3.11
2022-12-18T01:39:59.708Z,3.18
2022-12-18T01:42:26.684Z,3.20
2022-12-18T01:45:15.041Z,3.29
2022-12-18T01:47:49.032Z,3.26
2022-12-18T01:50:39.220Z,3.14
2022-12-18T01:53:09.004Z,3.24
2022-12-18T01:55:52.928Z,3.15
2022-12-18T01:58:21.172Z,3.08
2022-12-18T02:00:47.920Z,3.22
2022-12-18T02:03:15.617Z,3.21
2022-12-18T02:05:51.213Z,3.27
2022-12-18T02:08:28.537Z,3.26
2022-12-18T02:11:12.022Z,3.12
2022-12-18T02:13:56.621Z,3.20
2022-12-18T02:16:45.841Z,3.03
2022-12-18T02:19:34.575Z,3.26
2022-12-18T02:22:33.594Z,3.23
2022-12-18T02:25:30.764Z,3.17
2022-12-18T02:28:01.013Z,3.15
2022-12-18T02:30:32.297Z,3.05
2022-12-18T02:33:02.146Z,3.18
2022-12-18T02:35:31.311Z,3.13
2022-12-18T02:37:59.532Z,3.03
2022-12-18T02:40:29.397Z,2.94
2022-12-18T02:42:56.360Z,2.98
2022-12-18T02:45:22.931Z,2.99
2022-12-18T02:47:51.572Z,2.94
2022-12-18T02:50:34.178Z,2.94
2022-12-18T02:53:28.463Z,2.92
2022-12-18T02:56:19.572Z,2.84
2022-12-18T02:58:46.269Z,2.75
2022-12-18T03:01:28.297Z,2.77
2022-12-18T03:04:09.517Z,2.75
2022-12-18T03:06:48.129Z,2.91
2022-12-18T03:09:40.376Z,2.82
2022-12-18T03:12:24.032Z,2.75
2022-12-18T03:14:59.117Z,2.81
2022-12-18T03:17:28.944Z,2.84
2022-12-18T03:19:59.832Z,2.80
2022-12-18T03:22:31.280Z,2.81
2022-12-18T03:24:58.698Z,2.73
2022-12-18T03:27:27.667Z,2.92
2022-12-18T03:30:08.314Z,2.88
2022-12-18T03:32:42.568Z,2.96
2022-12-18T03:35:13.269Z,2.88
2022-12-18T03:37:40.091Z,2.79
2022-12-18T03:40:07.310Z,2.85
2022-12-18T03:42:57.759Z,2.72
2022-12-18T03:45:39.348Z,2.71
2022-12-18T03:48:18.888Z,2.67
2022-12-18T03:50:54.101Z,2.63
2022-12-18T03:53:53.533Z,2.67
2022-12-18T03:56:24.819Z,2.46
2022-12-18T03:58:53.681Z,2.43
2022-12-18T04:01:27.775Z,2.37
2022-12-18T04:03:56.132Z,2.53
2022-12-18T04:06:23.414Z,2.35
2022-12-18T04:08:50.451Z,2.39
2022-12-18T04:11:17.176Z,2.39
2022-12-18T04:13:44.409Z,2.43
2022-12-18T04:16:11.300Z,2.37
2022-12-18T04:18:38.356Z,2.40
2022-12-18T04:21:05.142Z,2.19
2022-12-18T04:23:31.828Z,2.22
2022-12-18T04:25:58.495Z,2.38
2022-12-18T04:28:25.326Z,2.33
2022-12-18T04:30:52.304Z,2.36
2022-12-18T04:33:19.493Z,2.41
2022-12-18T04:35:46.239Z,2.41
2022-12-18T04:38:13.114Z,2.28
2022-12-18T04:40:40.071Z,2.33
2022-12-18T04:43:08.537Z,2.31
2022-12-18T04:45:35.407Z,2.31
2022-12-18T04:48:03.615Z,2.27
2022-12-18T04:50:31.210Z,2.27
2022-12-18T04:52:58.319Z,2.32
2022-12-18T04:55:28.524Z,2.25
2022-12-18T04:57:55.271Z,2.24
2022-12-18T05:00:22.125Z,2.21
2022-12-18T05:02:49.001Z,2.20
2022-12-18T05:05:15.952Z,2.09
2022-12-18T05:07:42.698Z,2.17
2022-12-18T05:10:10.418Z,2.04
2022-12-18T05:12:57.141Z,2.06
2022-12-18T05:15:23.866Z,2.15
2022-12-18T05:17:50.544Z,1.98
2022-12-18T05:20:17.309Z,2.18
2022-12-18T05:22:43.875Z,2.27
2022-12-18T05:25:10.641Z,2.21
2022-12-18T05:27:37.245Z,2.21
2022-12-18T05:30:04.295Z,2.24
2022-12-18T05:32:31.014Z,2.19
2022-12-18T05:34:58.269Z,2.15
2022-12-18T05:37:24.933Z,2.19
2022-12-18T05:39:51.707Z,1.95
2022-12-18T05:42:18.299Z,2.17
2022-12-18T05:44:45.436Z,2.11
2022-12-18T05:47:12.160Z,2.15
2022-12-18T05:49:38.766Z,2.04
2022-12-18T05:52:05.620Z,1.97
2022-12-18T05:54:32.471Z,1.99
2022-12-18T05:56:59.631Z,1.99
2022-12-18T05:59:26.281Z,2.04
2022-12-18T06:01:53.133Z,1.97
2022-12-18T06:04:19.990Z,2.09
2022-12-18T06:06:46.611Z,2.06
2022-12-18T06:09:13.460Z,2.05
2022-12-18T06:11:40.463Z,2.07
2022-12-18T06:14:07.665Z,2.08
2022-12-18T06:16:34.429Z,2.04
2022-12-18T06:19:03.357Z,2.10
2022-12-18T06:21:30.987Z,2.06
2022-12-18T06:23:59.091Z,2.02
2022-12-18T06:26:28.461Z,1.99
2022-12-18T06:28:55.641Z,1.78
2022-12-18T06:31:22.302Z,1.99
2022-12-18T06:33:49.449Z,1.76
2022-12-18T06:36:17.624Z,1.93
2022-12-18T06:38:45.083Z,1.94
2022-12-18T06:41:17.613Z,2.01
2022-12-18T06:43:45.175Z,1.99
2022-12-18T06:46:12.436Z,2.03
2022-12-18T06:48:39.687Z,2.02
2022-12-18T06:51:06.941Z,1.98
2022-12-18T06:53:34.419Z,1.97
2022-12-18T06:56:09.785Z,2.03
2022-12-18T06:58:37.334Z,1.82
2022-12-18T07:01:06.957Z,1.94
2022-12-18T07:03:33.752Z,1.91
2022-12-18T07:06:00.531Z,1.95
2022-12-18T07:08:27.171Z,1.90
2022-12-18T07:10:56.381Z,1.98
2022-12-18T07:13:23.740Z,2.00
2022-12-18T07:15:50.498Z,1.94
2022-12-18T07:18:17.357Z,1.98
2022-12-18T07:20:45.387Z,2.02
2022-12-18T07:23:12.638Z,1.90
2022-12-18T07:25:40.451Z,1.88
2022-12-18T07:28:07.763Z,1.79
2022-12-18T07:30:38.668Z,1.92
2022-12-18T07:33:05.604Z,1.94
2022-12-18T07:35:33.697Z,1.90
2022-12-18T07:38:03.030Z,1.98
2022-12-18T07:40:29.742Z,1.90
2022-12-18T07:42:56.547Z,1.89
2022-12-18T07:45:23.270Z,1.94
2022-12-18T07:47:49.977Z,1.95
2022-12-18T07:50:16.860Z,2.00
2022-12-18T07:52:43.490Z,1.85
2022-12-18T07:55:10.125Z,1.85
2022-12-18T07:57:55.438Z,1.93
2022-12-18T08:00:23.828Z,1.92
2022-12-18T08:02:50.716Z,1.99
2022-12-18T08:05:17.579Z,1.94
2022-12-18T08:07:44.321Z,1.96
2022-12-18T08:10:10.996Z,2.04
2022-12-18T08:12:37.863Z,1.99
2022-12-18T08:15:04.760Z,1.95
2022-12-18T08:17:31.889Z,2.08
2022-12-18T08:19:58.585Z,1.86
2022-12-18T08:22:26.026Z,1.95
2022-12-18T08:24:52.995Z,2.03
2022-12-18T08:27:35.225Z,1.92
2022-12-18T08:30:02.305Z,2.00
2022-12-18T08:32:29.498Z,1.93
2022-12-18T08:34:56.165Z,2.03
2022-12-18T08:37:22.916Z,2.11
2022-12-18T08:39:49.621Z,2.21
2022-12-18T08:42:34.959Z,2.18
2022-12-18T08:45:02.225Z,2.08
2022-12-18T08:47:28.812Z,2.33
2022-12-18T08:49:55.689Z,2.40
2022-12-18T08:52:22.732Z,2.40
2022-12-18T08:54:49.464Z,2.43
2022-12-18T08:57:17.176Z,2.46
2022-12-18T08:59:43.907Z,2.29
2022-12-18T09:02:12.419Z,2.21
2022-12-18T09:04:41.040Z,2.39
2022-12-18T09:07:08.473Z,2.43
2022-12-18T09:09:35.066Z,2.58
2022-12-18T09:12:01.749Z,2.44
2022-12-18T09:14:28.397Z,2.62
2022-12-18T09:16:55.230Z,2.62
2022-12-18T09:19:21.914Z,2.59
2022-12-18T09:21:48.740Z,2.57
2022-12-18T09:24:16.852Z,2.71
2022-12-18T09:26:47.312Z,2.84
2022-12-18T09:29:16.789Z,2.75
2022-12-18T09:31:45.828Z,2.67
2022-12-18T09:34:12.495Z,2.81
2022-12-18T09:36:39.433Z,2.82
2022-12-18T09:39:08.597Z,2.61
2022-12-18T09:41:58.061Z,2.51
2022-12-18T09:44:41.483Z,2.74
2022-12-18T09:47:17.538Z,2.67
2022-12-18T09:49:47.032Z,2.68
2022-12-18T09:52:38.616Z,2.84
2022-12-18T09:55:36.895Z,2.89
2022-12-18T09:58:23.459Z,2.91
2022-12-18T10:00:54.291Z,2.93
2022-12-18T10:03:21.817Z,2.87
2022-12-18T10:05:55.167Z,2.99
2022-12-18T10:08:33.816Z,2.93
2022-12-18T10:11:40.068Z,3.03
2022-12-18T10:14:28.530Z,3.18
2022-12-18T10:17:14.909Z,3.09
2022-12-18T10:19:42.318Z,3.13
2022-12-18T10:22:27.759Z,3.10
2022-12-18T10:25:07.957Z,3.46
2022-12-18T10:27:34.942Z,3.46
2022-12-18T10:30:02.433Z,3.44
2022-12-18T10:32:31.757Z,3.38
2022-12-18T10:35:02.038Z,3.50
2022-12-18T10:37:31.076Z,3.50
2022-12-18T10:40:22.413Z,3.60
2022-12-18T10:43:05.332Z,3.60
2022-12-18T10:45:31.961Z,3.66
2022-12-18T10:47:59.395Z,3.66
2022-12-18T10:50:28.663Z,3.64
2022-12-18T10:53:07.689Z,3.57
2022-12-18T10:55:45.188Z,3.65
2022-12-18T10:58:26.780Z,3.61
2022-12-18T11:01:14.086Z,3.65
2022-12-18T11:03:44.384Z,3.49
2022-12-18T11:06:16.899Z,3.62
2022-12-18T11:08:45.876Z,3.68
2022-12-18T11:11:24.315Z,3.57
2022-12-18T11:14:03.580Z,3.62
2022-12-18T11:16:34.599Z,3.62
2022-12-18T11:19:15.281Z,3.58
2022-12-18T11:21:43.421Z,3.56
2022-12-18T11:24:24.175Z,3.64
2022-12-18T11:26:54.962Z,3.71
2022-12-18T11:29:46.244Z,3.80
2022-12-18T11:32:16.050Z,3.79
2022-12-18T11:34:48.530Z,3.69
2022-12-18T11:37:23.150Z,3.63
2022-12-18T11:40:07.658Z,3.53
2022-12-18T11:42:48.095Z,3.53
2022-12-18T11:45:14.707Z,3.48
2022-12-18T11:48:04.789Z,3.39
2022-12-18T11:50:52.184Z,3.49
2022-12-18T11:53:19.739Z,3.49
2022-12-18T11:56:01.838Z,3.61
2022-12-18T11:58:31.585Z,3.54
2022-12-18T12:01:16.675Z,3.60
2022-12-18T12:04:22.933Z,3.56
2022-12-18T12:07:10.829Z,3.67
2022-12-18T12:09:46.539Z,3.56
2022-12-18T12:12:48.721Z,3.66
2022-12-18T12:15:29.983Z,3.57
2022-12-18T12:18:00.451Z,3.65
2022-12-18T12:20:36.207Z,3.76
2022-12-18T12:23:16.622Z,3.72
2022-12-18T12:26:08.708Z,3.90
2022-12-18T12:29:10.599Z,3.84
2022-12-18T12:31:52.916Z,3.72
2022-12-18T12:34:38.722Z,3.68
2022-12-18T12:37:23.670Z,3.80
2022-12-18T12:39:54.245Z,3.64
2022-12-18T12:43:01.757Z,3.88
2022-12-18T12:45:38.796Z,3.89
2022-12-18T12:48:10.689Z,3.79
2022-12-18T12:50:40.083Z,3.73
2022-12-18T12:53:23.850Z,3.46
2022-12-18T12:55:53.173Z,3.47
2022-12-18T12:58:52.248Z,3.12
2022-12-18T13:01:42.451Z,3.41
2022-12-18T13:04:45.294Z,3.44
2022-12-18T13:07:19.973Z,3.29
2022-12-18T13:10:19.159Z,3.38
2022-12-18T13:13:09.213Z,3.37
2022-12-18T13:15:49.436Z,2.91
2022-12-18T13:18:21.394Z,3.37
2022-12-18T13:21:03.950Z,3.33
2022-12-18T13:23:32.865Z,3.30
2022-12-18T13:26:10.775Z,3.10
2022-12-18T13:28:49.817Z,3.44
2022-12-18T13:31:42.188Z,3.49
2022-12-18T13:34:29.558Z,3.40
2022-12-18T13:37:18.304Z,3.28
2022-12-18T13:39:45.200Z,3.44
2022-12-18T13:42:32.772Z,3.43
2022-12-18T13:44:59.592Z,3.22
2022-12-18T13:47:34.708Z,3.41
2022-12-18T13:50:21.081Z,3.25
2022-12-18T13:52:49.601Z,2.86
2022-12-18T13:55:21.784Z,3.25
2022-12-18T13:57:48.652Z,3.28
2022-12-18T14:00:29.759Z,3.30
2022-12-18T14:02:58.935Z,3.32
2022-12-18T14:05:39.032Z,3.02
2022-12-18T14:08:12.338Z,3.05
2022-12-18T14:10:49.019Z,3.23
2022-12-18T14:13:42.877Z,3.23
2022-12-18T14:16:16.673Z,3.13
2022-12-18T14:18:51.806Z,2.98
2022-12-18T14:21:30.528Z,3.03
2022-12-18T14:24:10.176Z,3.08
2022-12-18T14:26:36.971Z,3.11
2022-12-18T14:29:23.471Z,3.17
2022-12-18T14:32:25.627Z,3.04
2022-12-18T14:34:55.250Z,2.94
2022-12-18T14:37:28.056Z,2.95
2022-12-18T14:39:55.126Z,2.93
2022-12-18T14:42:21.947Z,2.93
2022-12-18T14:45:12.952Z,3.01
2022-12-18T14:47:35.625Z,2.95
2022-12-18T14:50:02.321Z,2.86
2022-12-18T14:52:32.550Z,2.90
2022-12-18T14:54:59.688Z,2.85
2022-12-18T14:57:36.581Z,2.89
2022-12-18T15:00:09.000Z,2.90
2022-12-18T15:02:37.277Z,2.92
2022-12-18T15:05:12.632Z,2.84
2022-12-18T15:07:51.847Z,2.78
2022-12-18T15:10:40.306Z,2.79
2022-12-18T15:13:10.414Z,2.72
2022-12-18T15:15:37.230Z,2.73
2022-12-18T15:18:05.966Z,2.76
2022-12-18T15:20:34.151Z,2.80
2022-12-18T15:23:00.879Z,2.64
2022-12-18T15:25:38.377Z,2.57
2022-12-18T15:28:16.898Z,2.77
2022-12-18T15:31:02.394Z,2.57
2022-12-18T15:33:37.776Z,2.61
2022-12-18T15:36:10.177Z,2.61
2022-12-18T15:38:37.134Z,2.74
2022-12-18T15:41:14.165Z,2.64
2022-12-18T15:43:41.804Z,2.63
2022-12-18T15:46:18.141Z,2.70
2022-12-18T15:48:47.596Z,2.74
2022-12-18T15:51:19.464Z,2.72
2022-12-18T15:53:47.702Z,2.74
2022-12-18T15:56:34.945Z,2.74
2022-12-18T15:59:02.921Z,2.66
2022-12-18T16:01:32.900Z,2.52
2022-12-18T16:04:01.005Z,2.50
2022-12-18T16:06:36.370Z,2.58
2022-12-18T16:09:11.938Z,2.51
2022-12-18T16:11:43.181Z,2.47
2022-12-18T16:14:22.765Z,2.60
2022-12-18T16:16:53.977Z,2.56
2022-12-18T16:19:22.506Z,2.57
2022-12-18T16:21:51.727Z,2.56
2022-12-18T16:24:24.473Z,2.39
2022-12-18T16:26:55.153Z,2.54
2022-12-18T16:29:28.335Z,2.46
2022-12-18T16:31:56.552Z,2.35
2022-12-18T16:34:35.799Z,2.39
2022-12-18T16:37:06.449Z,2.33
2022-12-18T16:39:35.648Z,2.22
2022-12-18T16:42:05.921Z,2.22
2022-12-18T16:44:34.269Z,2.31
2022-12-18T16:47:03.452Z,2.31
2022-12-18T16:49:31.003Z,2.33
2022-12-18T16:51:57.877Z,2.29
2022-12-18T16:54:25.495Z,2.18
2022-12-18T16:56:52.528Z,2.26
2022-12-18T16:59:20.006Z,2.21
2022-12-18T17:01:47.869Z,2.27
2022-12-18T17:04:15.580Z,2.17
2022-12-18T17:06:44.831Z,2.15
2022-12-18T17:09:15.486Z,2.24
2022-12-18T17:11:42.713Z,2.31
2022-12-18T17:14:18.028Z,2.15
2022-12-18T17:16:44.890Z,2.01
2022-12-18T17:19:16.909Z,2.10
2022-12-18T17:21:45.562Z,2.05
2022-12-18T17:24:12.480Z,1.94
2022-12-18T17:26:39.712Z,2.02
2022-12-18T17:29:06.571Z,2.01
2022-12-18T17:31:34.090Z,1.87
2022-12-18T17:34:03.223Z,1.88
2022-12-18T17:36:32.442Z,1.82
2022-12-18T17:39:03.770Z,1.76
2022-12-18T17:41:31.071Z,1.76
2022-12-18T17:44:00.656Z,1.90
2022-12-18T17:46:28.771Z,1.82
2022-12-18T17:48:56.388Z,1.80
2022-12-18T17:51:23.399Z,1.71
2022-12-18T17:53:50.862Z,1.69
2022-12-18T17:56:20.319Z,1.64
2022-12-18T17:58:48.397Z,1.51
2022-12-18T18:01:18.118Z,1.48
2022-12-18T18:03:45.820Z,1.38
2022-12-18T18:06:15.732Z,1.30
2022-12-18T18:08:42.594Z,1.35
2022-12-18T18:11:32.562Z,1.29
2022-12-18T18:14:03.036Z,1.24
2022-12-18T18:16:42.852Z,1.12
2022-12-18T18:19:22.020Z,0.98
2022-12-18T18:21:50.989Z,0.88
2022-12-18T18:24:23.474Z,0.80
2022-12-18T18:26:51.091Z,0.79
2022-12-18T18:29:21.021Z,0.83
2022-12-18T18:31:48.049Z,0.81
2022-12-18T18:34:21.354Z,0.85
2022-12-18T18:36:48.288Z,0.75
2022-12-18T18:39:18.440Z,0.68
2022-12-18T18:41:47.882Z,0.59
2022-12-18T18:44:16.513Z,0.33
2022-12-18T18:46:43.649Z,0.59
2022-12-18T18:49:10.933Z,0.44
2022-12-18T18:51:37.796Z,0.46
2022-12-18T18:54:05.117Z,0.44
2022-12-18T18:59:20.015Z,0.43
2022-12-18T19:01:53.107Z,0.45
2022-12-18T19:04:20.188Z,0.37
2022-12-18T19:06:48.027Z,0.41
2022-12-18T19:09:15.830Z,0.35
2022-12-18T19:12:01.342Z,0.22
2022-12-18T19:14:28.310Z,0.30
2022-12-18T19:16:55.639Z,0.38
2022-12-18T19:19:22.631Z,0.23
2022-12-18T19:21:50.218Z,0.24
2022-12-18T19:24:17.410Z,0.17
2022-12-18T19:26:44.198Z,0.32
2022-12-18T19:29:12.380Z,0.31
2022-12-18T19:31:39.120Z,0.30
2022-12-18T19:34:07.998Z,0.23
2022-12-18T19:36:37.062Z,0.05
2022-12-18T19:39:16.501Z,-0.01
2022-12-18T19:41:44.349Z,0.05
2022-12-18T19:44:13.783Z,-0.03
2022-12-18T19:46:43.029Z,0.02
2022-12-18T19:49:11.303Z,-0.14
2022-12-18T19:51:43.604Z,-0.18
2022-12-18T19:54:16.179Z,-0.16
2022-12-18T19:56:43.679Z,-0.31
2022-12-18T19:59:11.446Z,-0.23
2022-12-18T20:01:38.319Z,-0.23
2022-12-18T20:04:06.056Z,-0.26
2022-12-18T20:06:46.792Z,-0.37
2022-12-18T20:09:13.489Z,-0.25
2022-12-18T20:11:42.002Z,-0.28
2022-12-18T20:14:11.239Z,-0.42
2022-12-18T20:16:38.568Z,-0.45
2022-12-18T20:19:06.451Z,-0.58
2022-12-18T20:21:33.367Z,-0.59
2022-12-18T20:24:01.290Z,-0.73
2022-12-18T20:26:28.521Z,-0.72
2022-12-18T20:28:56.725Z,-0.72
2022-12-18T20:31:24.762Z,-0.76
2022-12-18T20:33:53.253Z,-0.69
2022-12-18T20:36:23.588Z,-0.77
2022-12-18T20:38:57.021Z,-0.96
2022-12-18T20:41:27.355Z,-0.87
2022-12-18T20:44:04.724Z,-0.97
2022-12-18T20:46:31.556Z,-1.00
2022-12-18T20:48:58.329Z,-1.01
2022-12-18T20:51:26.804Z,-1.06
2022-12-18T20:53:55.699Z,-1.12
2022-12-18T20:56:23.426Z,-1.07
2022-12-18T20:58:51.767Z,-0.94
2022-12-18T21:01:23.717Z,-0.96
2022-12-18T21:03:51.726Z,-1.11
2022-12-18T21:06:20.651Z,-1.12
2022-12-18T21:08:48.060Z,-1.17
2022-12-18T21:11:52.033Z,-1.15
2022-12-18T21:14:24.762Z,-1.18
2022-12-18T21:16:54.511Z,-1.39
2022-12-18T21:19:25.104Z,-1.17
2022-12-18T21:21:52.892Z,-1.13
2022-12-18T21:24:19.886Z,-1.22
2022-12-18T21:26:47.946Z,-1.21
2022-12-18T21:29:17.889Z,-1.15
2022-12-18T21:31:45.515Z,-1.28
2022-12-18T21:34:21.600Z,-1.20
2022-12-18T21:36:49.632Z,-1.32
2022-12-18T21:39:17.251Z,-1.13
2022-12-18T21:42:03.714Z,-1.15
2022-12-18T21:44:30.965Z,-1.24
2022-12-18T21:47:15.138Z,-1.31
2022-12-18T21:49:53.086Z,-1.39
2022-12-18T21:52:31.178Z,-1.32
2022-12-18T21:55:06.196Z,-1.26
2022-12-18T21:57:35.956Z,-1.29
2022-12-18T22:00:03.177Z,-1.34
2022-12-18T22:02:30.085Z,-1.38
2022-12-18T22:04:57.033Z,-1.41
2022-12-18T22:07:23.671Z,-1.44
2022-12-18T22:09:50.397Z,-1.50
2022-12-18T22:12:35.368Z,-1.49
2022-12-18T22:15:04.741Z,-1.49
2022-12-18T22:17:31.363Z,-1.51
2022-12-18T22:19:58.068Z,-1.57
2022-12-18T22:22:25.005Z,-1.53
2022-12-18T22:24:51.706Z,-1.35
2022-12-18T22:27:18.397Z,-1.44
2022-12-18T22:30:03.598Z,-1.42
2022-12-18T22:32:31.823Z,-1.56
2022-12-18T22:35:05.233Z,-1.36
2022-12-18T22:37:34.378Z,-1.38
2022-12-18T22:40:03.103Z,-1.25
2022-12-18T22:42:31.421Z,-1.24
2022-12-18T22:44:58.301Z,-1.36
2022-12-18T22:47:29.490Z,-1.28
2022-12-18T22:49:57.415Z,-1.28
2022-12-18T22:52:25.080Z,-1.28
2022-12-18T22:54:53.537Z,-1.30
2022-12-18T22:57:21.768Z,-1.33
2022-12-18T22:59:49.554Z,-1.24
2022-12-18T23:02:17.846Z,-1.23
2022-12-18T23:04:45.279Z,-1.35
2022-12-18T23:07:12.065Z,-1.24
2022-12-18T23:09:40.281Z,-1.28
2022-12-18T23:12:07.828Z,-1.30
2022-12-18T23:14:34.779Z,-1.26
2022-12-18T23:17:01.425Z,-1.19
2022-12-18T23:19:28.107Z,-1.16
2022-12-18T23:21:58.279Z,-1.23
2022-12-18T23:24:28.246Z,-1.37
2022-12-18T23:26:58.051Z,-1.22
2022-12-18T23:29:24.823Z,-1.24
2022-12-18T23:31:51.490Z,-1.13
2022-12-18T23:34:18.145Z,-1.19
2022-12-18T23:36:46.453Z,-1.35
2022-12-18T23:39:15.428Z,-1.32
2022-12-18T23:41:55.108Z,-1.15
2022-12-18T23:44:21.807Z,-1.20
2022-12-18T23:46:48.680Z,-1.40
2022-12-18T23:49:15.445Z,-1.22
2022-12-18T23:51:42.114Z,-1.08
2022-12-18T23:54:10.417Z,-1.23
2022-12-18T23:56:37.106Z,-1.18
2022-12-18T23:59:03.962Z,-1.06
